sensor_id;sensor_type;location;lat;lon;timestamp;P1;durP1;ratioP1;P2;durP2;ratioP2
40252;SDS011;25972;51.854;4.534;2022-12-29T00:01:38;1.45;;;1.30;;
40252;SDS011;25972;51.854;4.534;2022-12-29T00:04:05;1.75;;;1.58;;
40252;SDS011;25972;51.854;4.534;2022-12-29T00:06:31;1.52;;;1.40;;
40252;SDS011;25972;51.854;4.534;2022-12-29T00:08:58;1.30;;;1.30;;
40252;SDS011;25972;51.854;4.534;2022-12-29T00:11:25;2.22;;;1.90;;
40252;SDS011;25972;51.854;4.534;2022-12-29T00:13:52;2.38;;;1.50;;
40252;SDS011;25972;51.854;4.534;2022-12-29T00:16:42;2.10;;;1.90;;
40252;SDS011;25972;51.854;4.534;2022-12-29T00:19:11;1.52;;;1.42;;
40252;SDS011;25972;51.854;4.534;2022-12-29T00:22:00;2.42;;;1.70;;
40252;SDS011;25972;51.854;4.534;2022-12-29T00:24:45;5.45;;;1.58;;
40252;SDS011;25972;51.854;4.534;2022-12-29T00:27:29;4.25;;;2.05;;
40252;SDS011;25972;51.854;4.534;2022-12-29T00:30:18;2.67;;;1.73;;
40252;SDS011;25972;51.854;4.534;2022-12-29T00:33:13;1.95;;;1.80;;
40252;SDS011;25972;51.854;4.534;2022-12-29T00:36:04;1.43;;;1.33;;
40252;SDS011;25972;51.854;4.534;2022-12-29T00:38:50;1.58;;;1.48;;
40252;SDS011;25972;51.854;4.534;2022-12-29T00:41:39;1.38;;;1.33;;
40252;SDS011;25972;51.854;4.534;2022-12-29T00:44:23;2.78;;;1.80;;
40252;SDS011;25972;51.854;4.534;2022-12-29T00:46:50;1.70;;;1.60;;
40252;SDS011;25972;51.854;4.534;2022-12-29T00:49:18;2.08;;;1.55;;
40252;SDS011;25972;51.854;4.534;2022-12-29T00:52:03;1.20;;;1.20;;
40252;SDS011;25972;51.854;4.534;2022-12-29T00:54:32;2.45;;;1.60;;
40252;SDS011;25972;51.854;4.534;2022-12-29T00:57:00;1.65;;;1.55;;
40252;SDS011;25972;51.854;4.534;2022-12-29T00:59:28;1.42;;;1.33;;
40252;SDS011;25972;51.854;4.534;2022-12-29T01:01:56;3.28;;;1.88;;
40252;SDS011;25972;51.854;4.534;2022-12-29T01:04:23;2.83;;;1.50;;
40252;SDS011;25972;51.854;4.534;2022-12-29T01:06:50;1.73;;;1.55;;
40252;SDS011;25972;51.854;4.534;2022-12-29T01:09:17;1.67;;;1.33;;
40252;SDS011;25972;51.854;4.534;2022-12-29T01:12:03;1.92;;;1.50;;
40252;SDS011;25972;51.854;4.534;2022-12-29T01:14:30;1.55;;;1.38;;
40252;SDS011;25972;51.854;4.534;2022-12-29T01:16:57;2.55;;;1.35;;
40252;SDS011;25972;51.854;4.534;2022-12-29T01:19:23;1.58;;;1.40;;
40252;SDS011;25972;51.854;4.534;2022-12-29T01:21:50;1.60;;;1.50;;
40252;SDS011;25972;51.854;4.534;2022-12-29T01:24:18;1.60;;;1.50;;
40252;SDS011;25972;51.854;4.534;2022-12-29T01:26:45;1.98;;;1.73;;
40252;SDS011;25972;51.854;4.534;2022-12-29T01:29:12;1.67;;;1.45;;
40252;SDS011;25972;51.854;4.534;2022-12-29T01:31:38;1.45;;;1.38;;
40252;SDS011;25972;51.854;4.534;2022-12-29T01:34:05;1.60;;;1.50;;
40252;SDS011;25972;51.854;4.534;2022-12-29T01:36:31;2.97;;;1.60;;
40252;SDS011;25972;51.854;4.534;2022-12-29T01:38:57;2.25;;;1.40;;
40252;SDS011;25972;51.854;4.534;2022-12-29T01:41:24;1.75;;;1.60;;
40252;SDS011;25972;51.854;4.534;2022-12-29T01:46:33;3.72;;;1.65;;
40252;SDS011;25972;51.854;4.534;2022-12-29T01:51:58;1.63;;;1.50;;
40252;SDS011;25972;51.854;4.534;2022-12-29T01:57:04;1.95;;;1.85;;
40252;SDS011;25972;51.854;4.534;2022-12-29T01:59:39;2.60;;;1.50;;
40252;SDS011;25972;51.854;4.534;2022-12-29T02:02:12;4.78;;;1.67;;
40252;SDS011;25972;51.854;4.534;2022-12-29T02:04:39;2.67;;;1.58;;
40252;SDS011;25972;51.854;4.534;2022-12-29T02:07:13;1.98;;;1.70;;
40252;SDS011;25972;51.854;4.534;2022-12-29T02:09:43;1.67;;;1.58;;
40252;SDS011;25972;51.854;4.534;2022-12-29T02:12:11;2.55;;;1.50;;
40252;SDS011;25972;51.854;4.534;2022-12-29T02:14:38;1.60;;;1.50;;
40252;SDS011;25972;51.854;4.534;2022-12-29T02:17:27;1.60;;;1.50;;
40252;SDS011;25972;51.854;4.534;2022-12-29T02:26:38;6.53;;;1.60;;
40252;SDS011;25972;51.854;4.534;2022-12-29T02:37:46;4.68;;;1.77;;
40252;SDS011;25972;51.854;4.534;2022-12-29T02:43:20;1.70;;;1.50;;
40252;SDS011;25972;51.854;4.534;2022-12-29T02:48:29;1.60;;;1.50;;
40252;SDS011;25972;51.854;4.534;2022-12-29T02:51:27;4.97;;;1.80;;
40252;SDS011;25972;51.854;4.534;2022-12-29T02:53:57;2.70;;;1.70;;
40252;SDS011;25972;51.854;4.534;2022-12-29T02:56:42;4.32;;;1.80;;
40252;SDS011;25972;51.854;4.534;2022-12-29T02:59:11;3.28;;;2.03;;
40252;SDS011;25972;51.854;4.534;2022-12-29T03:07:20;3.70;;;2.00;;
40252;SDS011;25972;51.854;4.534;2022-12-29T03:10:17;2.10;;;1.80;;
40252;SDS011;25972;51.854;4.534;2022-12-29T03:12:54;1.70;;;1.60;;
40252;SDS011;25972;51.854;4.534;2022-12-29T03:15:55;2.50;;;1.73;;
40252;SDS011;25972;51.854;4.534;2022-12-29T03:21:19;1.90;;;1.80;;
40252;SDS011;25972;51.854;4.534;2022-12-29T03:24:17;2.67;;;2.05;;
40252;SDS011;25972;51.854;4.534;2022-12-29T03:26:46;1.77;;;1.67;;
40252;SDS011;25972;51.854;4.534;2022-12-29T03:29:16;2.65;;;2.17;;
40252;SDS011;25972;51.854;4.534;2022-12-29T03:31:45;1.73;;;1.63;;
40252;SDS011;25972;51.854;4.534;2022-12-29T03:34:14;2.53;;;1.95;;
40252;SDS011;25972;51.854;4.534;2022-12-29T03:36:44;1.50;;;1.50;;
40252;SDS011;25972;51.854;4.534;2022-12-29T03:39:16;5.28;;;1.90;;
40252;SDS011;25972;51.854;4.534;2022-12-29T03:41:44;6.85;;;2.33;;
40252;SDS011;25972;51.854;4.534;2022-12-29T03:44:13;4.78;;;2.38;;
40252;SDS011;25972;51.854;4.534;2022-12-29T03:46:38;4.25;;;1.83;;
40252;SDS011;25972;51.854;4.534;2022-12-29T03:49:04;4.00;;;2.45;;
40252;SDS011;25972;51.854;4.534;2022-12-29T03:51:30;3.35;;;2.17;;
40252;SDS011;25972;51.854;4.534;2022-12-29T03:53:56;13.25;;;2.47;;
40252;SDS011;25972;51.854;4.534;2022-12-29T03:56:22;3.88;;;2.33;;
40252;SDS011;25972;51.854;4.534;2022-12-29T03:58:49;4.35;;;2.03;;
40252;SDS011;25972;51.854;4.534;2022-12-29T04:01:28;4.80;;;2.22;;
40252;SDS011;25972;51.854;4.534;2022-12-29T04:03:55;22.35;;;3.03;;
40252;SDS011;25972;51.854;4.534;2022-12-29T04:06:21;4.47;;;2.20;;
40252;SDS011;25972;51.854;4.534;2022-12-29T04:08:55;8.38;;;3.15;;
40252;SDS011;25972;51.854;4.534;2022-12-29T04:11:24;3.35;;;2.22;;
40252;SDS011;25972;51.854;4.534;2022-12-29T04:13:49;4.53;;;2.28;;
40252;SDS011;25972;51.854;4.534;2022-12-29T04:16:19;4.57;;;2.13;;
40252;SDS011;25972;51.854;4.534;2022-12-29T04:18:45;5.30;;;2.60;;
40252;SDS011;25972;51.854;4.534;2022-12-29T04:21:11;7.80;;;2.30;;
40252;SDS011;25972;51.854;4.534;2022-12-29T04:23:39;7.78;;;2.53;;
40252;SDS011;25972;51.854;4.534;2022-12-29T04:26:07;3.53;;;2.22;;
40252;SDS011;25972;51.854;4.534;2022-12-29T04:28:40;6.03;;;2.60;;
40252;SDS011;25972;51.854;4.534;2022-12-29T04:31:22;5.00;;;2.42;;
40252;SDS011;25972;51.854;4.534;2022-12-29T04:33:49;2.30;;;2.10;;
40252;SDS011;25972;51.854;4.534;2022-12-29T04:36:15;5.75;;;2.65;;
40252;SDS011;25972;51.854;4.534;2022-12-29T04:38:42;8.73;;;2.42;;
40252;SDS011;25972;51.854;4.534;2022-12-29T04:41:08;6.90;;;2.35;;
40252;SDS011;25972;51.854;4.534;2022-12-29T04:43:36;9.35;;;2.95;;
40252;SDS011;25972;51.854;4.534;2022-12-29T04:46:05;5.10;;;2.33;;
40252;SDS011;25972;51.854;4.534;2022-12-29T04:48:51;4.82;;;2.50;;
40252;SDS011;25972;51.854;4.534;2022-12-29T04:51:43;4.75;;;2.72;;
40252;SDS011;25972;51.854;4.534;2022-12-29T04:54:11;8.45;;;2.85;;
40252;SDS011;25972;51.854;4.534;2022-12-29T04:56:37;7.20;;;2.95;;
40252;SDS011;25972;51.854;4.534;2022-12-29T04:59:03;7.20;;;3.47;;
40252;SDS011;25972;51.854;4.534;2022-12-29T05:01:30;7.38;;;3.40;;
40252;SDS011;25972;51.854;4.534;2022-12-29T05:03:58;6.65;;;3.63;;
40252;SDS011;25972;51.854;4.534;2022-12-29T05:06:24;3.28;;;2.85;;
40252;SDS011;25972;51.854;4.534;2022-12-29T05:08:50;5.03;;;3.20;;
40252;SDS011;25972;51.854;4.534;2022-12-29T05:11:16;6.13;;;3.45;;
40252;SDS011;25972;51.854;4.534;2022-12-29T05:13:46;8.98;;;3.53;;
40252;SDS011;25972;51.854;4.534;2022-12-29T05:16:14;9.88;;;4.05;;
40252;SDS011;25972;51.854;4.534;2022-12-29T05:18:40;3.40;;;3.17;;
40252;SDS011;25972;51.854;4.534;2022-12-29T05:21:07;8.93;;;3.42;;
40252;SDS011;25972;51.854;4.534;2022-12-29T05:23:33;9.63;;;3.95;;
40252;SDS011;25972;51.854;4.534;2022-12-29T05:26:04;7.32;;;3.63;;
40252;SDS011;25972;51.854;4.534;2022-12-29T05:28:45;8.27;;;4.30;;
40252;SDS011;25972;51.854;4.534;2022-12-29T05:31:16;8.52;;;4.15;;
40252;SDS011;25972;51.854;4.534;2022-12-29T05:33:42;9.68;;;4.13;;
40252;SDS011;25972;51.854;4.534;2022-12-29T05:36:08;6.63;;;3.00;;
40252;SDS011;25972;51.854;4.534;2022-12-29T05:38:37;3.20;;;3.00;;
40252;SDS011;25972;51.854;4.534;2022-12-29T05:41:06;10.32;;;3.58;;
40252;SDS011;25972;51.854;4.534;2022-12-29T05:43:51;10.75;;;3.92;;
40252;SDS011;25972;51.854;4.534;2022-12-29T05:46:37;11.90;;;3.65;;
40252;SDS011;25972;51.854;4.534;2022-12-29T05:49:08;4.85;;;3.33;;
40252;SDS011;25972;51.854;4.534;2022-12-29T05:51:53;12.75;;;4.78;;
40252;SDS011;25972;51.854;4.534;2022-12-29T05:54:22;9.43;;;4.13;;
40252;SDS011;25972;51.854;4.534;2022-12-29T05:56:48;12.45;;;4.38;;
40252;SDS011;25972;51.854;4.534;2022-12-29T05:59:14;10.85;;;4.32;;
40252;SDS011;25972;51.854;4.534;2022-12-29T06:01:42;7.22;;;4.13;;
40252;SDS011;25972;51.854;4.534;2022-12-29T06:04:08;9.18;;;4.53;;
40252;SDS011;25972;51.854;4.534;2022-12-29T06:06:34;6.63;;;4.07;;
40252;SDS011;25972;51.854;4.534;2022-12-29T06:09:01;6.88;;;3.95;;
40252;SDS011;25972;51.854;4.534;2022-12-29T06:11:27;5.82;;;3.78;;
40252;SDS011;25972;51.854;4.534;2022-12-29T06:14:02;10.85;;;4.13;;
40252;SDS011;25972;51.854;4.534;2022-12-29T06:16:28;5.75;;;4.40;;
40252;SDS011;25972;51.854;4.534;2022-12-29T06:18:57;8.75;;;4.40;;
40252;SDS011;25972;51.854;4.534;2022-12-29T06:21:26;14.32;;;4.10;;
40252;SDS011;25972;51.854;4.534;2022-12-29T06:23:53;7.00;;;4.68;;
40252;SDS011;25972;51.854;4.534;2022-12-29T06:26:19;4.68;;;4.22;;
40252;SDS011;25972;51.854;4.534;2022-12-29T06:28:49;7.65;;;3.83;;
40252;SDS011;25972;51.854;4.534;2022-12-29T06:31:15;10.50;;;3.97;;
40252;SDS011;25972;51.854;4.534;2022-12-29T06:33:41;6.47;;;3.50;;
40252;SDS011;25972;51.854;4.534;2022-12-29T06:36:07;13.93;;;4.57;;
40252;SDS011;25972;51.854;4.534;2022-12-29T06:38:32;7.35;;;4.35;;
40252;SDS011;25972;51.854;4.534;2022-12-29T06:41:00;10.70;;;3.97;;
40252;SDS011;25972;51.854;4.534;2022-12-29T06:43:49;12.77;;;4.38;;
40252;SDS011;25972;51.854;4.534;2022-12-29T06:46:22;4.93;;;3.45;;
40252;SDS011;25972;51.854;4.534;2022-12-29T06:48:48;6.03;;;3.85;;
40252;SDS011;25972;51.854;4.534;2022-12-29T06:51:13;12.00;;;3.55;;
40252;SDS011;25972;51.854;4.534;2022-12-29T06:53:39;9.52;;;4.07;;
40252;SDS011;25972;51.854;4.534;2022-12-29T06:56:05;4.63;;;3.58;;
40252;SDS011;25972;51.854;4.534;2022-12-29T06:58:31;7.57;;;3.65;;
40252;SDS011;25972;51.854;4.534;2022-12-29T07:00:57;4.88;;;3.20;;
40252;SDS011;25972;51.854;4.534;2022-12-29T07:03:23;7.25;;;3.42;;
40252;SDS011;25972;51.854;4.534;2022-12-29T07:05:49;5.18;;;3.17;;
40252;SDS011;25972;51.854;4.534;2022-12-29T07:08:15;7.18;;;3.90;;
40252;SDS011;25972;51.854;4.534;2022-12-29T07:10:41;13.13;;;3.63;;
40252;SDS011;25972;51.854;4.534;2022-12-29T07:13:06;6.95;;;3.90;;
40252;SDS011;25972;51.854;4.534;2022-12-29T07:15:33;6.65;;;3.50;;
40252;SDS011;25972;51.854;4.534;2022-12-29T07:17:59;7.88;;;4.53;;
40252;SDS011;25972;51.854;4.534;2022-12-29T07:20:25;16.33;;;3.60;;
40252;SDS011;25972;51.854;4.534;2022-12-29T07:22:51;5.97;;;3.33;;
40252;SDS011;25972;51.854;4.534;2022-12-29T07:25:17;6.45;;;3.20;;
40252;SDS011;25972;51.854;4.534;2022-12-29T07:27:42;3.85;;;3.50;;
40252;SDS011;25972;51.854;4.534;2022-12-29T07:30:08;4.50;;;3.65;;
40252;SDS011;25972;51.854;4.534;2022-12-29T07:32:34;6.38;;;3.70;;
40252;SDS011;25972;51.854;4.534;2022-12-29T07:35:01;11.80;;;3.95;;
40252;SDS011;25972;51.854;4.534;2022-12-29T07:37:27;9.88;;;4.07;;
40252;SDS011;25972;51.854;4.534;2022-12-29T07:39:52;15.75;;;4.43;;
40252;SDS011;25972;51.854;4.534;2022-12-29T07:42:18;9.43;;;4.18;;
40252;SDS011;25972;51.854;4.534;2022-12-29T07:44:49;13.98;;;4.05;;
40252;SDS011;25972;51.854;4.534;2022-12-29T07:47:20;5.68;;;3.97;;
40252;SDS011;25972;51.854;4.534;2022-12-29T07:49:47;11.43;;;4.30;;
40252;SDS011;25972;51.854;4.534;2022-12-29T07:52:13;8.90;;;3.97;;
40252;SDS011;25972;51.854;4.534;2022-12-29T07:54:38;11.98;;;4.85;;
40252;SDS011;25972;51.854;4.534;2022-12-29T07:57:05;8.88;;;4.13;;
40252;SDS011;25972;51.854;4.534;2022-12-29T07:59:31;11.65;;;4.07;;
40252;SDS011;25972;51.854;4.534;2022-12-29T08:01:57;10.23;;;4.60;;
40252;SDS011;25972;51.854;4.534;2022-12-29T08:04:23;8.43;;;4.13;;
40252;SDS011;25972;51.854;4.534;2022-12-29T08:06:49;13.40;;;4.25;;
40252;SDS011;25972;51.854;4.534;2022-12-29T08:09:15;10.90;;;4.57;;
40252;SDS011;25972;51.854;4.534;2022-12-29T08:11:41;7.20;;;3.78;;
40252;SDS011;25972;51.854;4.534;2022-12-29T08:14:07;9.98;;;4.53;;
40252;SDS011;25972;51.854;4.534;2022-12-29T08:16:34;6.07;;;3.83;;
40252;SDS011;25972;51.854;4.534;2022-12-29T08:19:00;7.40;;;4.03;;
40252;SDS011;25972;51.854;4.534;2022-12-29T08:21:33;10.45;;;4.78;;
40252;SDS011;25972;51.854;4.534;2022-12-29T08:23:58;9.60;;;4.13;;
40252;SDS011;25972;51.854;4.534;2022-12-29T08:26:24;15.07;;;5.15;;
40252;SDS011;25972;51.854;4.534;2022-12-29T08:28:54;9.77;;;4.45;;
40252;SDS011;25972;51.854;4.534;2022-12-29T08:31:21;8.93;;;4.13;;
40252;SDS011;25972;51.854;4.534;2022-12-29T08:33:47;7.35;;;4.65;;
40252;SDS011;25972;51.854;4.534;2022-12-29T08:36:13;8.35;;;4.47;;
40252;SDS011;25972;51.854;4.534;2022-12-29T08:38:39;10.45;;;4.32;;
40252;SDS011;25972;51.854;4.534;2022-12-29T08:41:05;9.85;;;4.30;;
40252;SDS011;25972;51.854;4.534;2022-12-29T08:43:31;5.47;;;3.60;;
40252;SDS011;25972;51.854;4.534;2022-12-29T08:45:57;5.07;;;3.63;;
40252;SDS011;25972;51.854;4.534;2022-12-29T08:48:23;8.65;;;3.65;;
40252;SDS011;25972;51.854;4.534;2022-12-29T08:50:50;10.43;;;4.07;;
40252;SDS011;25972;51.854;4.534;2022-12-29T08:53:16;8.77;;;3.78;;
40252;SDS011;25972;51.854;4.534;2022-12-29T08:55:44;17.83;;;4.53;;
40252;SDS011;25972;51.854;4.534;2022-12-29T08:58:11;5.68;;;3.35;;
40252;SDS011;25972;51.854;4.534;2022-12-29T09:00:40;5.65;;;3.50;;
40252;SDS011;25972;51.854;4.534;2022-12-29T09:03:08;9.95;;;4.00;;
40252;SDS011;25972;51.854;4.534;2022-12-29T09:05:33;11.38;;;3.90;;
40252;SDS011;25972;51.854;4.534;2022-12-29T09:07:59;7.80;;;3.33;;
40252;SDS011;25972;51.854;4.534;2022-12-29T09:10:25;7.15;;;3.90;;
40252;SDS011;25972;51.854;4.534;2022-12-29T09:12:51;10.18;;;4.50;;
40252;SDS011;25972;51.854;4.534;2022-12-29T09:15:16;9.07;;;3.33;;
40252;SDS011;25972;51.854;4.534;2022-12-29T09:17:42;10.77;;;4.03;;
40252;SDS011;25972;51.854;4.534;2022-12-29T09:20:12;5.97;;;3.38;;
40252;SDS011;25972;51.854;4.534;2022-12-29T09:22:39;7.57;;;3.03;;
40252;SDS011;25972;51.854;4.534;2022-12-29T09:25:05;4.78;;;2.65;;
40252;SDS011;25972;51.854;4.534;2022-12-29T09:27:32;2.80;;;2.60;;
40252;SDS011;25972;51.854;4.534;2022-12-29T09:29:58;3.00;;;2.80;;
40252;SDS011;25972;51.854;4.534;2022-12-29T09:32:25;11.00;;;3.60;;
40252;SDS011;25972;51.854;4.534;2022-12-29T09:34:51;3.55;;;3.00;;
40252;SDS011;25972;51.854;4.534;2022-12-29T09:37:16;5.90;;;3.05;;
40252;SDS011;25972;51.854;4.534;2022-12-29T09:39:42;3.90;;;2.78;;
40252;SDS011;25972;51.854;4.534;2022-12-29T09:42:12;2.70;;;2.50;;
40252;SDS011;25972;51.854;4.534;2022-12-29T09:45:18;4.88;;;2.90;;
40252;SDS011;25972;51.854;4.534;2022-12-29T09:47:45;6.10;;;3.10;;
40252;SDS011;25972;51.854;4.534;2022-12-29T09:50:27;9.88;;;3.60;;
40252;SDS011;25972;51.854;4.534;2022-12-29T09:52:55;6.07;;;3.63;;
40252;SDS011;25972;51.854;4.534;2022-12-29T09:55:26;6.05;;;3.45;;
40252;SDS011;25972;51.854;4.534;2022-12-29T09:58:02;10.60;;;3.67;;
40252;SDS011;25972;51.854;4.534;2022-12-29T10:00:43;4.75;;;3.35;;
40252;SDS011;25972;51.854;4.534;2022-12-29T10:03:16;5.75;;;3.67;;
40252;SDS011;25972;51.854;4.534;2022-12-29T10:05:51;10.32;;;3.50;;
40252;SDS011;25972;51.854;4.534;2022-12-29T10:08:44;10.10;;;3.97;;
40252;SDS011;25972;51.854;4.534;2022-12-29T10:14:15;14.57;;;3.80;;
40252;SDS011;25972;51.854;4.534;2022-12-29T10:17:05;7.05;;;3.33;;
40252;SDS011;25972;51.854;4.534;2022-12-29T10:20:11;12.55;;;3.88;;
40252;SDS011;25972;51.854;4.534;2022-12-29T10:25:45;4.78;;;2.78;;
40252;SDS011;25972;51.854;4.534;2022-12-29T10:28:22;9.68;;;3.63;;
40252;SDS011;25972;51.854;4.534;2022-12-29T10:30:55;15.90;;;4.10;;
40252;SDS011;25972;51.854;4.534;2022-12-29T10:33:26;13.13;;;3.38;;
40252;SDS011;25972;51.854;4.534;2022-12-29T10:35:59;13.00;;;3.95;;
40252;SDS011;25972;51.854;4.534;2022-12-29T10:38:51;9.90;;;3.33;;
40252;SDS011;25972;51.854;4.534;2022-12-29T10:41:28;14.18;;;3.47;;
40252;SDS011;25972;51.854;4.534;2022-12-29T10:43:59;12.93;;;3.75;;
40252;SDS011;25972;51.854;4.534;2022-12-29T10:46:30;13.55;;;3.58;;
40252;SDS011;25972;51.854;4.534;2022-12-29T10:49:00;9.77;;;3.03;;
40252;SDS011;25972;51.854;4.534;2022-12-29T10:51:31;9.38;;;2.83;;
40252;SDS011;25972;51.854;4.534;2022-12-29T10:56:52;11.45;;;3.17;;
40252;SDS011;25972;51.854;4.534;2022-12-29T10:59:22;3.50;;;2.85;;
40252;SDS011;25972;51.854;4.534;2022-12-29T11:07:14;12.82;;;3.55;;
40252;SDS011;25972;51.854;4.534;2022-12-29T11:09:42;11.65;;;4.03;;
40252;SDS011;25972;51.854;4.534;2022-12-29T11:12:26;11.45;;;5.35;;
40252;SDS011;25972;51.854;4.534;2022-12-29T11:15:15;13.25;;;4.18;;
40252;SDS011;25972;51.854;4.534;2022-12-29T11:17:47;7.47;;;3.67;;
40252;SDS011;25972;51.854;4.534;2022-12-29T11:23:04;19.33;;;5.32;;
40252;SDS011;25972;51.854;4.534;2022-12-29T11:25:45;11.13;;;3.40;;
40252;SDS011;25972;51.854;4.534;2022-12-29T11:28:15;11.05;;;4.15;;
40252;SDS011;25972;51.854;4.534;2022-12-29T11:30:41;11.52;;;4.25;;
40252;SDS011;25972;51.854;4.534;2022-12-29T11:33:08;13.70;;;3.75;;
40252;SDS011;25972;51.854;4.534;2022-12-29T11:38:19;17.70;;;6.13;;
40252;SDS011;25972;51.854;4.534;2022-12-29T11:40:49;13.95;;;4.07;;
40252;SDS011;25972;51.854;4.534;2022-12-29T11:43:49;8.30;;;4.22;;
40252;SDS011;25972;51.854;4.534;2022-12-29T11:46:28;19.95;;;5.45;;
40252;SDS011;25972;51.854;4.534;2022-12-29T11:48:57;23.73;;;9.52;;
40252;SDS011;25972;51.854;4.534;2022-12-29T11:51:44;21.73;;;7.82;;
40252;SDS011;25972;51.854;4.534;2022-12-29T11:54:19;11.90;;;3.88;;
40252;SDS011;25972;51.854;4.534;2022-12-29T11:57:08;12.85;;;3.75;;
40252;SDS011;25972;51.854;4.534;2022-12-29T11:59:39;10.80;;;3.83;;
40252;SDS011;25972;51.854;4.534;2022-12-29T12:02:13;13.00;;;4.93;;
40252;SDS011;25972;51.854;4.534;2022-12-29T12:04:46;29.42;;;9.07;;
40252;SDS011;25972;51.854;4.534;2022-12-29T12:07:15;18.83;;;7.80;;
40252;SDS011;25972;51.854;4.534;2022-12-29T12:09:58;17.38;;;5.20;;
40252;SDS011;25972;51.854;4.534;2022-12-29T12:12:37;5.38;;;4.25;;
40252;SDS011;25972;51.854;4.534;2022-12-29T12:15:17;11.73;;;4.85;;
40252;SDS011;25972;51.854;4.534;2022-12-29T12:20:38;10.95;;;4.65;;
40252;SDS011;25972;51.854;4.534;2022-12-29T12:31:39;14.80;;;6.20;;
40252;SDS011;25972;51.854;4.534;2022-12-29T12:34:17;24.55;;;8.48;;
40252;SDS011;25972;51.854;4.534;2022-12-29T12:39:49;13.02;;;5.30;;
40252;SDS011;25972;51.854;4.534;2022-12-29T12:45:32;13.93;;;5.15;;
40252;SDS011;25972;51.854;4.534;2022-12-29T12:48:08;13.10;;;4.80;;
40252;SDS011;25972;51.854;4.534;2022-12-29T12:56:37;13.40;;;4.15;;
40252;SDS011;25972;51.854;4.534;2022-12-29T13:04:59;7.25;;;3.53;;
40252;SDS011;25972;51.854;4.534;2022-12-29T13:15:47;9.13;;;3.70;;
40252;SDS011;25972;51.854;4.534;2022-12-29T13:21:10;10.85;;;4.65;;
40252;SDS011;25972;51.854;4.534;2022-12-29T13:23:44;5.03;;;3.60;;
40252;SDS011;25972;51.854;4.534;2022-12-29T13:26:22;9.60;;;5.00;;
40252;SDS011;25972;51.854;4.534;2022-12-29T13:29:12;8.35;;;4.28;;
40252;SDS011;25972;51.854;4.534;2022-12-29T13:31:52;6.95;;;4.40;;
40252;SDS011;25972;51.854;4.534;2022-12-29T13:37:11;3.80;;;3.50;;
40252;SDS011;25972;51.854;4.534;2022-12-29T13:39:43;8.10;;;4.70;;
40252;SDS011;25972;51.854;4.534;2022-12-29T13:42:19;9.05;;;4.80;;
40252;SDS011;25972;51.854;4.534;2022-12-29T13:47:33;7.05;;;4.63;;
40252;SDS011;25972;51.854;4.534;2022-12-29T13:50:08;7.57;;;4.70;;
40252;SDS011;25972;51.854;4.534;2022-12-29T14:01:10;6.07;;;5.05;;
40252;SDS011;25972;51.854;4.534;2022-12-29T14:03:44;8.18;;;4.53;;
40252;SDS011;25972;51.854;4.534;2022-12-29T14:08:45;4.88;;;4.03;;
40252;SDS011;25972;51.854;4.534;2022-12-29T14:11:14;10.68;;;4.75;;
40252;SDS011;25972;51.854;4.534;2022-12-29T14:13:43;5.53;;;4.00;;
40252;SDS011;25972;51.854;4.534;2022-12-29T14:16:24;10.50;;;4.90;;
40252;SDS011;25972;51.854;4.534;2022-12-29T14:19:04;11.02;;;4.60;;
40252;SDS011;25972;51.854;4.534;2022-12-29T14:21:36;9.57;;;4.90;;
40252;SDS011;25972;51.854;4.534;2022-12-29T14:34:50;8.20;;;3.63;;
40252;SDS011;25972;51.854;4.534;2022-12-29T14:37:33;5.97;;;4.18;;
40252;SDS011;25972;51.854;4.534;2022-12-29T14:42:29;10.63;;;4.25;;
40252;SDS011;25972;51.854;4.534;2022-12-29T14:45:01;6.78;;;3.67;;
40252;SDS011;25972;51.854;4.534;2022-12-29T14:47:34;12.32;;;3.95;;
40252;SDS011;25972;51.854;4.534;2022-12-29T14:53:04;10.80;;;4.75;;
40252;SDS011;25972;51.854;4.534;2022-12-29T14:55:41;6.05;;;3.75;;
40252;SDS011;25972;51.854;4.534;2022-12-29T15:00:43;5.43;;;4.10;;
40252;SDS011;25972;51.854;4.534;2022-12-29T15:03:19;9.85;;;4.53;;
40252;SDS011;25972;51.854;4.534;2022-12-29T15:08:42;10.45;;;4.55;;
40252;SDS011;25972;51.854;4.534;2022-12-29T15:11:32;7.50;;;4.45;;
40252;SDS011;25972;51.854;4.534;2022-12-29T15:17:45;10.98;;;4.05;;
40252;SDS011;25972;51.854;4.534;2022-12-29T15:20:16;9.15;;;5.25;;
40252;SDS011;25972;51.854;4.534;2022-12-29T15:22:48;7.75;;;4.45;;
40252;SDS011;25972;51.854;4.534;2022-12-29T15:28:12;6.10;;;4.28;;
40252;SDS011;25972;51.854;4.534;2022-12-29T15:30:49;5.18;;;4.43;;
40252;SDS011;25972;51.854;4.534;2022-12-29T15:33:24;7.45;;;4.68;;
40252;SDS011;25972;51.854;4.534;2022-12-29T15:35:53;5.55;;;4.50;;
40252;SDS011;25972;51.854;4.534;2022-12-29T15:38:21;4.60;;;4.20;;
40252;SDS011;25972;51.854;4.534;2022-12-29T15:40:53;6.18;;;4.15;;
40252;SDS011;25972;51.854;4.534;2022-12-29T15:45:54;7.03;;;4.30;;
40252;SDS011;25972;51.854;4.534;2022-12-29T15:48:21;7.20;;;4.68;;
40252;SDS011;25972;51.854;4.534;2022-12-29T15:50:49;4.65;;;4.25;;
40252;SDS011;25972;51.854;4.534;2022-12-29T15:53:23;4.68;;;4.30;;
40252;SDS011;25972;51.854;4.534;2022-12-29T15:55:55;10.40;;;6.35;;
40252;SDS011;25972;51.854;4.534;2022-12-29T15:58:26;9.63;;;6.47;;
40252;SDS011;25972;51.854;4.534;2022-12-29T16:00:55;10.70;;;7.05;;
40252;SDS011;25972;51.854;4.534;2022-12-29T16:03:27;6.25;;;4.93;;
40252;SDS011;25972;51.854;4.534;2022-12-29T16:05:58;6.22;;;4.72;;
40252;SDS011;25972;51.854;4.534;2022-12-29T16:08:35;6.75;;;4.40;;
40252;SDS011;25972;51.854;4.534;2022-12-29T16:11:20;9.48;;;4.75;;
40252;SDS011;25972;51.854;4.534;2022-12-29T16:16:18;5.57;;;4.45;;
40252;SDS011;25972;51.854;4.534;2022-12-29T16:18:49;5.78;;;4.25;;
40252;SDS011;25972;51.854;4.534;2022-12-29T16:21:37;5.90;;;4.05;;
40252;SDS011;25972;51.854;4.534;2022-12-29T16:24:04;4.88;;;4.30;;
40252;SDS011;25972;51.854;4.534;2022-12-29T16:26:33;6.80;;;3.88;;
40252;SDS011;25972;51.854;4.534;2022-12-29T16:28:59;10.90;;;4.70;;
40252;SDS011;25972;51.854;4.534;2022-12-29T16:34:09;3.88;;;3.50;;
40252;SDS011;25972;51.854;4.534;2022-12-29T16:37:00;10.23;;;4.68;;
40252;SDS011;25972;51.854;4.534;2022-12-29T16:41:58;5.78;;;4.15;;
40252;SDS011;25972;51.854;4.534;2022-12-29T16:44:25;4.35;;;4.05;;
40252;SDS011;25972;51.854;4.534;2022-12-29T16:47:00;6.25;;;4.03;;
40252;SDS011;25972;51.854;4.534;2022-12-29T16:49:31;7.63;;;4.13;;
40252;SDS011;25972;51.854;4.534;2022-12-29T16:51:58;6.40;;;4.10;;
40252;SDS011;25972;51.854;4.534;2022-12-29T16:54:27;14.05;;;4.45;;
40252;SDS011;25972;51.854;4.534;2022-12-29T16:57:03;5.35;;;4.35;;
40252;SDS011;25972;51.854;4.534;2022-12-29T16:59:33;7.75;;;4.50;;
40252;SDS011;25972;51.854;4.534;2022-12-29T17:02:20;6.60;;;4.38;;
40252;SDS011;25972;51.854;4.534;2022-12-29T17:04:51;14.75;;;4.90;;
40252;SDS011;25972;51.854;4.534;2022-12-29T17:07:22;15.90;;;4.88;;
40252;SDS011;25972;51.854;4.534;2022-12-29T17:09:49;7.57;;;4.22;;
40252;SDS011;25972;51.854;4.534;2022-12-29T17:12:17;7.05;;;4.85;;
40252;SDS011;25972;51.854;4.534;2022-12-29T17:15:21;5.10;;;4.65;;
40252;SDS011;25972;51.854;4.534;2022-12-29T17:17:51;10.88;;;7.05;;
40252;SDS011;25972;51.854;4.534;2022-12-29T17:20:23;9.93;;;5.28;;
40252;SDS011;25972;51.854;4.534;2022-12-29T17:22:51;8.60;;;5.03;;
40252;SDS011;25972;51.854;4.534;2022-12-29T17:25:22;12.93;;;4.90;;
40252;SDS011;25972;51.854;4.534;2022-12-29T17:27:55;7.90;;;4.88;;
40252;SDS011;25972;51.854;4.534;2022-12-29T17:30:41;5.55;;;5.05;;
40252;SDS011;25972;51.854;4.534;2022-12-29T17:33:11;10.43;;;5.53;;
40252;SDS011;25972;51.854;4.534;2022-12-29T17:35:39;7.82;;;5.55;;
40252;SDS011;25972;51.854;4.534;2022-12-29T17:38:17;6.63;;;5.40;;
40252;SDS011;25972;51.854;4.534;2022-12-29T17:40:43;10.70;;;5.47;;
40252;SDS011;25972;51.854;4.534;2022-12-29T17:43:10;8.73;;;5.05;;